createdAt,value
2022-12-27T00:00:15.741Z,19.65
2022-12-27T00:02:45.387Z,24.47
2022-12-27T00:05:15.822Z,23.15
2022-12-27T00:07:46.022Z,18.62
2022-12-27T00:10:15.231Z,21.07
2022-12-27T00:12:44.835Z,19.95
2022-12-27T00:15:14.037Z,24.50
2022-12-27T00:17:43.357Z,20.97
2022-12-27T00:20:13.027Z,28.62
2022-12-27T00:22:42.917Z,24.92
2022-12-27T00:25:12.853Z,22.25
2022-12-27T00:27:42.383Z,23.27
2022-12-27T00:30:13.203Z,23.38
2022-12-27T00:32:42.950Z,23.73
2022-12-27T00:35:12.207Z,23.02
2022-12-27T00:37:41.413Z,22.37
2022-12-27T00:40:12.052Z,33.98
2022-12-27T00:42:41.248Z,21.15
2022-12-27T00:45:11.850Z,26.07
2022-12-27T00:47:41.079Z,25.72
2022-12-27T00:50:10.810Z,23.90
2022-12-27T00:52:40.061Z,24.65
2022-12-27T00:55:11.035Z,19.55
2022-12-27T00:57:40.207Z,22.25
2022-12-27T01:00:11.598Z,23.10
2022-12-27T01:02:41.272Z,22.85
2022-12-27T01:05:11.087Z,23.35
2022-12-27T01:07:41.514Z,25.82
2022-12-27T01:10:11.050Z,23.83
2022-12-27T01:12:40.255Z,20.08
2022-12-27T01:15:10.868Z,21.48
2022-12-27T01:17:40.149Z,22.50
2022-12-27T01:20:10.164Z,19.42
2022-12-27T01:22:39.407Z,20.80
2022-12-27T01:25:09.626Z,20.72
2022-12-27T01:27:39.453Z,19.57
2022-12-27T01:30:10.336Z,19.40
2022-12-27T01:32:39.740Z,21.52
2022-12-27T01:35:09.874Z,19.50
2022-12-27T01:37:39.305Z,20.85
2022-12-27T01:40:09.799Z,13.05
2022-12-27T01:42:55.545Z,15.60
2022-12-27T01:45:30.225Z,15.23
2022-12-27T01:48:20.203Z,14.65
2022-12-27T01:50:52.589Z,20.90
2022-12-27T01:53:24.393Z,18.17
2022-12-27T01:56:02.929Z,19.23
2022-12-27T01:58:43.719Z,22.20
2022-12-27T02:01:16.219Z,19.70
2022-12-27T02:03:58.070Z,19.40
2022-12-27T02:06:28.855Z,21.27
2022-12-27T02:09:24.630Z,19.27
2022-12-27T02:11:56.924Z,19.12
2022-12-27T02:14:32.135Z,24.85
2022-12-27T02:17:04.466Z,23.67
2022-12-27T02:19:42.583Z,24.77
2022-12-27T02:23:01.161Z,23.77
2022-12-27T02:25:40.025Z,23.15
2022-12-27T02:28:15.369Z,22.30
2022-12-27T02:30:46.423Z,21.50
2022-12-27T02:33:21.820Z,21.30
2022-12-27T02:35:57.331Z,20.30
2022-12-27T02:38:32.435Z,25.17
2022-12-27T02:41:21.637Z,19.52
2022-12-27T02:44:08.743Z,22.73
2022-12-27T02:46:55.916Z,16.70
2022-12-27T02:49:54.940Z,21.93
2022-12-27T02:52:57.219Z,22.40
2022-12-27T02:56:11.371Z,20.20
2022-12-27T02:59:00.174Z,16.20
2022-12-27T03:01:59.370Z,15.50
2022-12-27T03:05:02.269Z,19.82
2022-12-27T03:07:58.306Z,17.20
2022-12-27T03:11:05.973Z,14.18
2022-12-27T03:14:03.054Z,15.30
2022-12-27T03:16:52.356Z,11.05
2022-12-27T03:19:42.460Z,15.65
2022-12-27T03:22:30.940Z,19.55
2022-12-27T03:25:18.309Z,16.82
2022-12-27T03:27:51.052Z,17.77
2022-12-27T03:30:38.235Z,17.80
2022-12-27T03:33:14.085Z,17.92
2022-12-27T03:36:15.056Z,16.85
2022-12-27T03:38:50.099Z,16.40
2022-12-27T03:41:40.245Z,16.40
2022-12-27T03:44:12.523Z,18.02
2022-12-27T03:46:43.787Z,19.67
2022-12-27T03:49:33.893Z,16.62
2022-12-27T03:52:26.326Z,21.80
2022-12-27T03:54:55.938Z,17.35
2022-12-27T03:57:26.883Z,22.87
2022-12-27T03:59:56.411Z,17.35
2022-12-27T04:02:27.025Z,19.42
2022-12-27T04:04:56.448Z,16.50
2022-12-27T04:07:26.288Z,20.50
2022-12-27T04:10:13.154Z,22.50
2022-12-27T04:13:00.418Z,20.27
2022-12-27T04:15:47.748Z,21.05
2022-12-27T04:18:35.660Z,17.45
2022-12-27T04:21:22.859Z,20.45
2022-12-27T04:24:10.640Z,18.32
2022-12-27T04:26:57.726Z,14.25
2022-12-27T04:29:45.011Z,15.72
2022-12-27T04:32:32.430Z,17.77
2022-12-27T04:35:01.857Z,13.58
2022-12-27T04:37:31.429Z,13.13
2022-12-27T04:40:18.903Z,15.95
2022-12-27T04:43:05.972Z,10.30
2022-12-27T04:45:39.818Z,12.33
2022-12-27T04:48:33.741Z,12.00
2022-12-27T04:51:20.759Z,14.43
2022-12-27T04:54:08.191Z,15.28
2022-12-27T04:56:38.359Z,15.25
2022-12-27T04:59:25.841Z,19.70
2022-12-27T05:02:04.744Z,16.12
2022-12-27T05:04:36.297Z,17.87
2022-12-27T05:07:26.119Z,17.45
2022-12-27T05:10:13.628Z,19.57
2022-12-27T05:13:01.370Z,19.52
2022-12-27T05:15:31.680Z,17.52
2022-12-27T05:18:00.969Z,20.15
2022-12-27T05:20:30.178Z,21.05
2022-12-27T05:23:17.150Z,23.42
2022-12-27T05:25:47.716Z,22.07
2022-12-27T05:28:16.949Z,23.07
2022-12-27T05:30:46.176Z,21.57
2022-12-27T05:33:15.435Z,26.15
2022-12-27T05:35:46.023Z,19.57
2022-12-27T05:38:15.236Z,20.70
2022-12-27T05:40:45.095Z,24.90
2022-12-27T05:43:14.356Z,16.73
2022-12-27T05:45:43.829Z,17.37
2022-12-27T05:48:13.407Z,17.23
2022-12-27T05:50:43.125Z,16.07
2022-12-27T05:53:13.952Z,18.05
2022-12-27T05:55:43.173Z,18.00
2022-12-27T05:58:12.397Z,21.55
2022-12-27T06:00:41.795Z,16.48
2022-12-27T06:03:11.203Z,16.42
2022-12-27T06:05:40.840Z,20.65
2022-12-27T06:08:10.675Z,20.80
2022-12-27T06:10:40.566Z,18.40
2022-12-27T06:13:09.855Z,21.33
2022-12-27T06:15:39.244Z,24.55
2022-12-27T06:18:08.501Z,25.95
2022-12-27T06:20:37.719Z,22.32
2022-12-27T06:23:07.303Z,17.85
2022-12-27T06:25:41.109Z,24.27
2022-12-27T06:28:10.480Z,20.70
2022-12-27T06:30:39.673Z,23.70
2022-12-27T06:33:09.215Z,26.65
2022-12-27T06:35:38.405Z,26.95
2022-12-27T06:38:07.645Z,28.47
2022-12-27T06:40:36.836Z,24.98
2022-12-27T06:43:06.527Z,20.60
2022-12-27T06:45:35.805Z,24.30
2022-12-27T06:48:05.565Z,21.60
2022-12-27T06:50:34.778Z,19.52
2022-12-27T06:53:04.005Z,24.10
2022-12-27T06:55:33.198Z,23.10
2022-12-27T06:58:02.743Z,25.90
2022-12-27T07:00:31.942Z,25.80
2022-12-27T07:03:01.629Z,23.10
2022-12-27T07:05:30.917Z,29.30
2022-12-27T07:08:00.998Z,28.62
2022-12-27T07:10:30.437Z,21.00
2022-12-27T07:12:59.849Z,29.10
2022-12-27T07:15:29.671Z,25.65
2022-12-27T07:17:58.919Z,20.32
2022-12-27T07:20:28.157Z,30.25
2022-12-27T07:22:59.297Z,27.00
2022-12-27T07:25:28.524Z,26.75
2022-12-27T07:27:58.104Z,26.77
2022-12-27T07:30:29.045Z,26.05
2022-12-27T07:32:58.561Z,27.37
2022-12-27T07:35:27.787Z,25.85
2022-12-27T07:37:58.079Z,31.02
2022-12-27T07:40:27.294Z,27.50
2022-12-27T07:42:56.772Z,34.13
2022-12-27T07:45:25.997Z,32.93
2022-12-27T07:47:55.353Z,32.23
2022-12-27T07:50:24.673Z,28.65
2022-12-27T07:52:54.046Z,33.18
2022-12-27T07:55:23.301Z,35.38
2022-12-27T07:57:52.550Z,30.75
2022-12-27T08:00:21.860Z,34.78
2022-12-27T08:02:51.175Z,32.55
2022-12-27T08:05:25.865Z,29.37
2022-12-27T08:07:51.911Z,31.70
2022-12-27T08:10:21.163Z,34.23
2022-12-27T08:12:51.080Z,32.25
2022-12-27T08:15:21.301Z,28.60
2022-12-27T08:17:50.690Z,32.90
2022-12-27T08:20:20.051Z,32.13
2022-12-27T08:22:49.515Z,30.02
2022-12-27T08:25:18.895Z,35.78
2022-12-27T08:27:48.242Z,35.25
2022-12-27T08:30:17.580Z,31.70
2022-12-27T08:32:47.066Z,32.93
2022-12-27T08:35:51.073Z,30.20
2022-12-27T08:37:47.518Z,31.35
2022-12-27T08:40:16.809Z,30.77
2022-12-27T08:42:46.436Z,29.77
2022-12-27T08:45:16.184Z,28.90
2022-12-27T08:47:45.446Z,36.35
2022-12-27T08:50:14.715Z,28.17
2022-12-27T08:52:44.300Z,26.75
2022-12-27T08:55:14.019Z,32.75
2022-12-27T08:57:43.598Z,31.20
2022-12-27T09:00:13.951Z,20.20
2022-12-27T09:02:43.537Z,26.82
2022-12-27T09:05:12.939Z,28.62
2022-12-27T09:07:42.439Z,24.40
2022-12-27T09:10:12.059Z,25.97
2022-12-27T09:12:41.665Z,25.92
2022-12-27T09:15:12.401Z,27.90
2022-12-27T09:17:42.435Z,27.05
2022-12-27T09:20:12.512Z,23.45
2022-12-27T09:22:42.096Z,26.85
2022-12-27T09:25:11.570Z,25.95
2022-12-27T09:27:41.078Z,23.50
2022-12-27T09:30:11.016Z,21.48
2022-12-27T09:32:40.282Z,22.65
2022-12-27T09:35:09.794Z,18.87
2022-12-27T09:37:39.202Z,24.20
2022-12-27T09:40:10.409Z,22.15
2022-12-27T09:43:01.947Z,21.93
2022-12-27T09:45:31.110Z,23.80
2022-12-27T09:48:02.378Z,30.68
2022-12-27T09:50:36.891Z,32.90
2022-12-27T09:53:17.824Z,22.27
2022-12-27T09:55:52.053Z,23.07
2022-12-27T09:58:39.735Z,29.20
2022-12-27T10:01:28.494Z,19.75
2022-12-27T10:03:58.500Z,22.87
2022-12-27T10:06:52.079Z,19.40
2022-12-27T10:09:52.014Z,19.05
2022-12-27T10:12:29.812Z,22.73
2022-12-27T10:15:01.622Z,21.05
2022-12-27T10:17:53.129Z,20.27
2022-12-27T10:20:38.199Z,18.92
2022-12-27T10:23:12.904Z,16.90
2022-12-27T10:25:42.693Z,14.20
2022-12-27T10:28:22.956Z,14.60
2022-12-27T10:30:53.057Z,11.93
2022-12-27T10:33:25.894Z,15.95
2022-12-27T10:35:55.187Z,19.52
2022-12-27T10:38:25.212Z,15.38
2022-12-27T10:41:09.631Z,17.75
2022-12-27T10:43:40.665Z,17.30
2022-12-27T10:46:16.874Z,18.47
2022-12-27T10:49:20.652Z,16.50
2022-12-27T10:51:37.686Z,17.48
2022-12-27T10:54:12.749Z,16.77
2022-12-27T10:56:44.344Z,16.73
2022-12-27T10:59:19.258Z,16.77
2022-12-27T11:01:51.794Z,13.95
2022-12-27T11:06:53.443Z,18.00
2022-12-27T11:09:50.867Z,21.10
2022-12-27T11:12:24.925Z,16.75
2022-12-27T11:15:06.366Z,15.43
2022-12-27T11:17:41.358Z,13.08
2022-12-27T11:20:19.766Z,16.82
2022-12-27T11:22:52.324Z,17.92
2022-12-27T11:27:52.513Z,16.25
2022-12-27T11:30:27.838Z,20.00
2022-12-27T11:33:05.821Z,15.65
2022-12-27T11:35:37.514Z,17.02
2022-12-27T11:38:06.764Z,17.47
2022-12-27T11:40:36.671Z,17.20
2022-12-27T11:43:11.853Z,14.35
2022-12-27T11:45:49.738Z,15.40
2022-12-27T11:48:26.838Z,16.32
2022-12-27T11:51:20.537Z,19.92
2022-12-27T11:54:20.337Z,21.68
2022-12-27T11:56:51.854Z,18.42
2022-12-27T11:59:39.240Z,14.25
2022-12-27T12:02:30.261Z,16.75
2022-12-27T12:05:25.730Z,13.68
2022-12-27T12:08:04.202Z,14.18
2022-12-27T12:10:54.892Z,16.17
2022-12-27T12:13:49.110Z,16.25
2022-12-27T12:16:33.198Z,16.93
2022-12-27T12:19:11.759Z,18.90
2022-12-27T12:21:50.026Z,15.00
2022-12-27T12:24:35.413Z,15.08
2022-12-27T12:27:13.486Z,14.15
2022-12-27T12:30:23.836Z,16.48
2022-12-27T12:33:27.912Z,14.25
2022-12-27T12:36:00.386Z,14.50
2022-12-27T12:38:32.960Z,19.15
2022-12-27T12:41:34.657Z,14.15
2022-12-27T12:44:27.992Z,17.73
2022-12-27T12:47:03.440Z,18.55
2022-12-27T12:49:41.388Z,17.55
2022-12-27T12:52:31.310Z,14.43
2022-12-27T12:55:24.682Z,16.95
2022-12-27T12:58:00.142Z,15.80
2022-12-27T13:00:47.670Z,12.98
2022-12-27T13:03:41.924Z,10.30
2022-12-27T13:06:14.321Z,17.85
2022-12-27T13:08:49.977Z,12.50
2022-12-27T13:11:37.559Z,15.95
2022-12-27T13:14:41.730Z,15.15
2022-12-27T13:17:29.046Z,12.53
2022-12-27T13:20:11.036Z,16.25
2022-12-27T13:23:10.383Z,12.00
2022-12-27T13:25:52.153Z,14.33
2022-12-27T13:28:30.123Z,13.45
2022-12-27T13:31:08.376Z,15.45
2022-12-27T13:33:40.845Z,15.70
2022-12-27T13:36:41.800Z,13.28
2022-12-27T13:39:29.549Z,13.20
2022-12-27T13:42:04.879Z,15.28
2022-12-27T13:44:49.588Z,13.72
2022-12-27T13:47:55.226Z,14.25
2022-12-27T13:50:42.804Z,11.38
2022-12-27T13:53:31.855Z,13.70
2022-12-27T13:56:27.184Z,15.18
2022-12-27T13:58:56.219Z,13.05
2022-12-27T14:01:30.937Z,12.45
2022-12-27T14:04:19.906Z,12.37
2022-12-27T14:06:52.772Z,16.30
2022-12-27T14:09:31.044Z,15.75
2022-12-27T14:12:06.378Z,18.62
2022-12-27T14:14:38.871Z,14.33
2022-12-27T14:17:11.433Z,12.95
2022-12-27T14:22:19.596Z,13.40
2022-12-27T14:25:03.919Z,13.32
2022-12-27T14:27:42.402Z,11.20
2022-12-27T14:30:23.840Z,14.85
2022-12-27T14:33:14.020Z,15.23
2022-12-27T14:36:12.422Z,15.10
2022-12-27T14:38:45.181Z,13.98
2022-12-27T14:41:39.381Z,17.57
2022-12-27T14:44:35.577Z,13.68
2022-12-27T14:47:13.866Z,16.40
2022-12-27T14:49:48.900Z,15.00
2022-12-27T14:52:36.354Z,16.15
2022-12-27T14:55:28.607Z,15.05
2022-12-27T14:58:22.177Z,14.93
2022-12-27T15:01:00.849Z,16.12
2022-12-27T15:03:50.029Z,17.40
2022-12-27T15:06:22.560Z,14.60
2022-12-27T15:09:07.347Z,17.23
2022-12-27T15:11:56.723Z,17.12
2022-12-27T15:18:13.417Z,16.75
2022-12-27T15:24:44.977Z,13.35
2022-12-27T15:27:43.393Z,15.23
2022-12-27T15:34:01.308Z,14.53
2022-12-27T15:36:42.040Z,13.53
2022-12-27T15:39:37.087Z,12.07
2022-12-27T15:42:29.199Z,9.53
2022-12-27T15:45:00.792Z,13.08
2022-12-27T15:47:57.034Z,16.15
2022-12-27T15:50:51.702Z,12.03
2022-12-27T15:53:29.651Z,15.43
2022-12-27T15:56:14.432Z,19.62
2022-12-27T15:58:44.266Z,12.05
2022-12-27T16:01:25.665Z,16.20
2022-12-27T16:03:52.068Z,13.05
2022-12-27T16:06:45.600Z,14.50
2022-12-27T16:09:29.941Z,12.43
2022-12-27T16:12:06.009Z,13.93
2022-12-27T16:14:37.893Z,11.90
2022-12-27T16:17:29.912Z,15.00
2022-12-27T16:20:05.650Z,12.00
2022-12-27T16:22:38.149Z,14.25
2022-12-27T16:25:30.305Z,12.20
2022-12-27T16:27:59.780Z,14.28
2022-12-27T16:33:17.681Z,14.90
2022-12-27T16:35:47.094Z,11.70
2022-12-27T16:38:19.710Z,13.72
2022-12-27T16:43:25.041Z,14.47
2022-12-27T16:46:01.070Z,17.02
2022-12-27T16:48:55.396Z,12.30
2022-12-27T16:52:01.391Z,14.78
2022-12-27T16:54:49.357Z,13.75
2022-12-27T16:57:30.955Z,13.13
2022-12-27T17:00:12.450Z,14.73
2022-12-27T17:02:46.769Z,13.25
2022-12-27T17:05:19.329Z,14.13
2022-12-27T17:07:58.220Z,10.13
2022-12-27T17:10:35.839Z,16.42
2022-12-27T17:13:14.164Z,10.95
2022-12-27T17:15:58.872Z,13.38
2022-12-27T17:18:33.510Z,14.00
2022-12-27T17:21:08.016Z,12.82
2022-12-27T17:23:45.228Z,9.60
2022-12-27T17:26:23.326Z,12.43
2022-12-27T17:29:01.784Z,20.00
2022-12-27T17:31:34.266Z,10.08
2022-12-27T17:36:59.551Z,14.23
2022-12-27T17:39:48.407Z,10.82
2022-12-27T17:42:55.629Z,11.88
2022-12-27T17:45:31.180Z,14.23
2022-12-27T17:48:21.992Z,12.43
2022-12-27T17:50:53.016Z,12.40
2022-12-27T17:53:42.075Z,14.87
2022-12-27T17:56:37.557Z,13.25
2022-12-27T17:59:27.108Z,11.48
2022-12-27T18:01:59.653Z,12.60
2022-12-27T18:04:40.698Z,10.40
2022-12-27T18:07:11.705Z,14.43
2022-12-27T18:09:50.485Z,12.28
2022-12-27T18:12:22.569Z,12.78
2022-12-27T18:15:04.531Z,12.30
2022-12-27T18:17:40.931Z,9.78
2022-12-27T18:20:34.311Z,14.38
2022-12-27T18:23:06.666Z,11.30
2022-12-27T18:25:41.560Z,15.00
2022-12-27T18:28:16.906Z,13.05
2022-12-27T18:30:58.437Z,12.68
2022-12-27T18:33:36.992Z,15.38
2022-12-27T18:36:07.881Z,16.17
2022-12-27T18:38:39.505Z,17.10
2022-12-27T18:41:14.579Z,14.50
2022-12-27T18:43:49.156Z,14.85
2022-12-27T18:46:32.692Z,15.15
2022-12-27T18:49:02.293Z,27.65
2022-12-27T18:51:37.118Z,18.23
2022-12-27T18:54:24.152Z,15.78
2022-12-27T18:56:54.042Z,23.55
2022-12-27T18:59:27.500Z,20.95
2022-12-27T19:02:02.333Z,17.73
2022-12-27T19:04:33.298Z,17.32
2022-12-27T19:07:11.083Z,16.30
2022-12-27T19:09:42.955Z,15.58
2022-12-27T19:12:24.448Z,14.47
2022-12-27T19:14:54.302Z,16.42
2022-12-27T19:17:26.226Z,15.63
2022-12-27T19:19:58.710Z,17.55
2022-12-27T19:22:53.159Z,13.40
2022-12-27T19:25:31.030Z,17.05
2022-12-27T19:28:11.847Z,16.12
2022-12-27T19:30:43.498Z,12.37
2022-12-27T19:33:29.895Z,19.17
2022-12-27T19:35:59.277Z,20.70
2022-12-27T19:38:29.984Z,15.23
2022-12-27T19:41:04.329Z,13.70
2022-12-27T19:43:45.098Z,14.18
2022-12-27T19:46:15.359Z,16.80
2022-12-27T19:48:46.224Z,11.53
2022-12-27T19:51:20.305Z,13.83
2022-12-27T19:53:57.661Z,13.22
2022-12-27T19:56:23.682Z,23.38
2022-12-27T19:58:55.081Z,15.18
2022-12-27T20:01:24.592Z,14.05
2022-12-27T20:03:54.089Z,12.23
2022-12-27T20:06:28.143Z,13.62
2022-12-27T20:08:55.849Z,14.90
2022-12-27T20:11:27.013Z,13.78
2022-12-27T20:13:56.423Z,10.80
2022-12-27T20:16:25.950Z,12.85
2022-12-27T20:18:55.246Z,10.88
2022-12-27T20:21:24.602Z,11.60
2022-12-27T20:23:53.958Z,12.47
2022-12-27T20:26:25.473Z,12.60
2022-12-27T20:28:55.039Z,15.98
2022-12-27T20:31:24.324Z,17.67
2022-12-27T20:33:55.642Z,12.13
2022-12-27T20:36:25.360Z,10.88
2022-12-27T20:38:54.639Z,11.73
2022-12-27T20:41:24.355Z,15.50
2022-12-27T20:43:58.197Z,13.20
2022-12-27T20:46:27.849Z,13.10
2022-12-27T20:48:58.017Z,13.50
2022-12-27T20:51:31.059Z,16.62
2022-12-27T20:54:02.005Z,11.30
2022-12-27T20:56:31.866Z,13.38
2022-12-27T20:59:04.371Z,12.65
2022-12-27T21:04:02.417Z,15.30
2022-12-27T21:06:31.720Z,13.72
2022-12-27T21:09:01.020Z,11.80
2022-12-27T21:11:32.424Z,13.72
2022-12-27T21:14:03.389Z,11.40
2022-12-27T21:16:35.043Z,15.93
2022-12-27T21:19:05.311Z,16.75
2022-12-27T21:21:36.759Z,10.65
2022-12-27T21:24:08.208Z,11.35
2022-12-27T21:26:38.785Z,15.75
2022-12-27T21:29:09.562Z,12.65
2022-12-27T21:31:38.881Z,12.45
2022-12-27T21:34:08.455Z,14.70
2022-12-27T21:36:38.525Z,17.75
2022-12-27T21:39:08.937Z,19.65
2022-12-27T21:41:40.307Z,10.38
2022-12-27T21:44:09.958Z,10.78
2022-12-27T21:46:41.903Z,10.95
2022-12-27T21:49:13.501Z,12.93
2022-12-27T21:51:43.949Z,11.33
2022-12-27T21:54:14.038Z,11.53
2022-12-27T21:56:43.367Z,11.30
2022-12-27T21:59:12.753Z,16.37
2022-12-27T22:01:50.339Z,13.85
2022-12-27T22:04:15.013Z,16.20
2022-12-27T22:06:47.583Z,14.20
2022-12-27T22:09:16.005Z,12.43
2022-12-27T22:11:45.288Z,13.80
2022-12-27T22:14:14.742Z,17.10
2022-12-27T22:16:44.559Z,16.45
2022-12-27T22:19:14.284Z,18.32
2022-12-27T22:21:43.923Z,18.30
2022-12-27T22:24:15.913Z,14.10
2022-12-27T22:26:45.556Z,17.32
2022-12-27T22:29:14.881Z,10.35
2022-12-27T22:31:45.146Z,16.02
2022-12-27T22:34:14.662Z,11.43
2022-12-27T22:36:43.945Z,14.83
2022-12-27T22:39:15.293Z,15.72
2022-12-27T22:41:46.459Z,12.63
2022-12-27T22:44:16.539Z,15.25
2022-12-27T22:49:17.185Z,15.15
2022-12-27T22:51:46.839Z,14.33
2022-12-27T22:54:16.072Z,15.75
2022-12-27T22:56:45.939Z,14.70
2022-12-27T22:59:16.957Z,11.80
2022-12-27T23:01:46.961Z,14.38
2022-12-27T23:04:16.366Z,11.60
2022-12-27T23:06:45.622Z,10.58
2022-12-27T23:09:14.965Z,14.07
2022-12-27T23:11:44.199Z,13.32
2022-12-27T23:14:16.144Z,11.28
2022-12-27T23:16:47.890Z,13.32
2022-12-27T23:19:20.401Z,14.70
2022-12-27T23:24:18.462Z,13.30
2022-12-27T23:26:47.945Z,15.28
2022-12-27T23:29:17.503Z,14.65
2022-12-27T23:31:54.342Z,18.90
2022-12-27T23:34:22.513Z,16.73
2022-12-27T23:36:49.114Z,12.60
2022-12-27T23:39:18.337Z,16.10
2022-12-27T23:41:47.815Z,17.98
2022-12-27T23:44:32.921Z,13.98
2022-12-27T23:46:48.178Z,14.13
2022-12-27T23:49:17.608Z,15.00
2022-12-27T23:51:47.472Z,11.53
2022-12-27T23:54:16.688Z,13.10
2022-12-27T23:56:45.927Z,14.43
2022-12-27T23:59:16.861Z,14.35
